Swanton, Ohio
Current Conditions -  °F | °C
As of 2:52 AM on Tuesday 21 Oct 2014 (Local Time) from KTOL Reporting Station
Overcast Overcast  
Wind Chill: 45°   Ceiling: 7000
Heat Index: 49°   Visibility: 10mi
Dew Point: 44°   Wind: 10mph
Humidity: 83%   Direction: 350°N
Pressure: 29.9"   Gusts: NA
Location:  41.59°N, 83.89°W
Report Text: KTOL 210652Z 35009KT 10SM SCT043 OVC070 09/07 A2990 RMK AO2 SLP125 T00940067 $
Loading
Personal Weather Stations






























Interactive Weather Map
Tropical Storm Tracking
New forecast layout! Learn more

10-Day Weather Forecast

Advertisements
Track Severe Weather on mobile